Sunningdale, United Kingdom
Current Conditions -  °F | °C
As of 1:20 PM on Saturday 25 Oct 2014 (Local Time) from EGLF Reporting Station
Scattered Clouds Scattered Clouds  
Wind Chill: 57°   Ceiling: Unl
Heat Index: 57°   Visibility: 6mi
Dew Point: 46°   Wind: 13mph
Humidity: 67%   Direction: 240°WSW
Pressure: 30.09"   Gusts: NA
Location:  51.38°N, 0.62°W
Report Text: EGLF 251220Z 24011KT 9999 SCT034 14/08 Q1019
Loading
Personal Weather Stations






























Interactive Weather Map New forecast layout! Learn more

10-Day Weather Forecast

Advertisements
Track Severe Weather on mobile